Time;durP1;ratioP1;P1;durP2;ratioP2;P2;SDS_P1;SDS_P2;PMS_P1;PMS_P2;Temp;Humidity;BMP_temperature;BMP_pressure;BME280_temperature;BME280_humidity;BME280_pressure;Samples;Min_cycle;Max_cycle;Signal;HPM_P1;HPM_P2
2022/10/02 00:02:33;0.00;0.00;0.62;0.00;0.00;0.62;2.60;1.20;;;26.30;27.20;;;;;;2233156;62;20382;-68
2022/10/02 00:05:23;0.00;0.00;0.62;0.00;0.00;0.62;2.83;1.60;;;26.20;27.20;;;;;;2233329;62;20395;-66
2022/10/02 00:08:15;0.00;0.00;0.62;0.00;0.00;0.62;2.03;1.10;;;26.20;27.30;;;;;;2233315;62;20397;-66
2022/10/02 00:11:08;0.00;0.00;0.62;0.00;0.00;0.62;2.30;1.20;;;26.20;27.30;;;;;;2233083;62;20409;-67
2022/10/02 00:13:57;0.00;0.00;0.62;0.00;0.00;0.62;3.07;1.30;;;26.10;26.90;;;;;;2233078;62;20396;-68
2022/10/02 00:16:47;0.00;0.00;0.62;0.00;0.00;0.62;3.23;1.30;;;26.10;27.30;;;;;;2232527;62;20400;-65
2022/10/02 00:19:33;0.00;0.00;0.62;0.00;0.00;0.62;3.10;1.50;;;26.10;27.30;;;;;;2233257;62;20432;-65
2022/10/02 00:22:32;0.00;0.00;0.62;0.00;0.00;0.62;2.93;1.40;;;26.10;27.30;;;;;;2233730;62;20429;-66
2022/10/02 00:25:26;0.00;0.00;0.62;0.00;0.00;0.62;4.37;1.50;;;26.10;27.40;;;;;;2233077;62;20391;-66
2022/10/02 00:28:27;0.00;0.00;0.62;0.00;0.00;0.62;3.13;1.40;;;26.00;27.30;;;;;;2233340;62;20409;-67
2022/10/02 00:31:27;0.00;0.00;0.62;0.00;0.00;0.62;3.87;1.50;;;26.00;27.30;;;;;;2233242;62;20376;-66
2022/10/02 00:34:22;0.00;0.00;0.62;0.00;0.00;0.62;3.53;1.30;;;26.00;27.40;;;;;;2233626;62;20416;-66
2022/10/02 00:37:14;0.00;0.00;0.62;0.00;0.00;0.62;3.87;1.60;;;25.90;27.30;;;;;;2233562;62;20765;-67
2022/10/02 00:40:22;0.00;0.00;0.62;0.00;0.00;0.62;3.53;1.53;;;25.80;27.30;;;;;;2232985;62;20384;-64
2022/10/02 00:43:20;0.00;0.00;0.62;0.00;0.00;0.62;5.33;1.20;;;25.80;27.40;;;;;;2233762;62;20355;-66
2022/10/02 00:46:40;0.00;0.00;0.62;0.00;0.00;0.62;3.60;1.30;;;25.80;27.40;;;;;;2463524;54;20428;-67
2022/10/02 00:49:51;0.00;0.00;0.62;0.00;0.00;0.62;2.90;1.30;;;25.80;27.50;;;;;;2233778;62;20660;-67
2022/10/02 00:52:53;0.00;0.00;0.62;0.00;0.00;0.62;2.30;1.37;;;25.80;27.50;;;;;;2233879;62;20608;-67
2022/10/02 00:55:52;0.00;0.00;0.62;0.00;0.00;0.62;3.87;1.30;;;25.70;27.40;;;;;;2233862;62;20356;-67
2022/10/02 00:58:59;0.00;0.00;0.62;0.00;0.00;0.62;3.30;1.20;;;25.70;27.40;;;;;;2233936;62;20418;-67
2022/10/02 01:01:50;0.00;0.00;0.62;0.00;0.00;0.62;2.53;1.37;;;25.70;27.50;;;;;;2233583;62;20387;-66
2022/10/02 01:04:37;0.00;0.00;0.62;0.00;0.00;0.62;2.07;1.30;;;25.70;27.60;;;;;;2233997;62;20489;-66
2022/10/02 01:07:22;0.00;0.00;0.62;0.00;0.00;0.62;3.07;1.23;;;25.70;27.60;;;;;;2233869;62;20360;-67
2022/10/02 01:10:12;0.00;0.00;0.62;0.00;0.00;0.62;2.83;1.00;;;25.70;27.60;;;;;;2233594;62;20407;-66
2022/10/02 01:12:57;0.00;0.00;0.62;0.00;0.00;0.62;2.90;1.10;;;25.60;27.60;;;;;;2233932;62;20400;-66
2022/10/02 01:15:50;0.00;0.00;0.62;0.00;0.00;0.62;3.30;1.17;;;25.60;27.60;;;;;;2234072;62;20373;-67
2022/10/02 01:18:35;0.00;0.00;0.62;0.00;0.00;0.62;3.13;1.50;;;25.60;27.60;;;;;;2233903;62;20736;-65
2022/10/02 01:21:29;0.00;0.00;0.62;0.00;0.00;0.62;3.93;1.40;;;25.60;27.70;;;;;;2236394;62;20409;-65
2022/10/02 01:24:19;0.00;0.00;0.62;0.00;0.00;0.62;3.23;1.30;;;25.50;28.20;;;;;;2233599;62;20436;-66
2022/10/02 01:27:05;0.00;0.00;0.62;0.00;0.00;0.62;4.90;1.50;;;25.50;27.70;;;;;;2236104;62;20400;-66
2022/10/02 01:29:55;0.00;0.00;0.62;0.00;0.00;0.62;2.57;0.90;;;25.50;27.80;;;;;;2233856;62;20368;-66
2022/10/02 01:32:46;0.00;0.00;0.62;0.00;0.00;0.62;2.00;1.03;;;25.50;27.80;;;;;;2233948;62;20468;-66
2022/10/02 01:35:36;0.00;0.00;0.62;0.00;0.00;0.62;3.70;1.20;;;25.40;27.80;;;;;;2233754;62;20586;-67
2022/10/02 01:38:23;0.00;0.00;0.62;0.00;0.00;0.62;2.87;1.30;;;25.40;27.80;;;;;;2233415;62;20756;-66
2022/10/02 01:41:10;0.00;0.00;0.62;0.00;0.00;0.62;3.30;1.47;;;25.40;27.90;;;;;;2233471;62;20392;-66
2022/10/02 01:43:59;0.00;0.00;0.62;0.00;0.00;0.62;4.40;1.23;;;25.40;28.00;;;;;;2236550;62;20397;-67
2022/10/02 01:46:55;0.00;0.00;0.62;0.00;0.00;0.62;5.10;1.77;;;25.30;28.00;;;;;;2233654;62;20365;-65
2022/10/02 01:49:59;0.00;0.00;0.62;0.00;0.00;0.62;4.20;1.73;;;25.30;28.10;;;;;;2233678;62;20414;-66
2022/10/02 01:52:55;0.00;0.00;0.62;0.00;0.00;0.62;3.70;1.40;;;25.30;28.10;;;;;;2233758;62;20400;-67
2022/10/02 01:55:47;0.00;0.00;0.62;0.00;0.00;0.62;5.63;1.77;;;25.20;28.20;;;;;;2233919;62;20404;-66
2022/10/02 01:58:43;0.00;0.00;0.62;0.00;0.00;0.62;4.43;1.50;;;25.20;28.20;;;;;;2234050;62;20360;-67
2022/10/02 02:01:42;0.00;0.00;0.62;0.00;0.00;0.62;3.00;1.73;;;25.20;28.30;;;;;;2233408;62;20464;-67
2022/10/02 02:04:37;0.00;0.00;0.62;0.00;0.00;0.62;3.47;1.50;;;25.20;28.40;;;;;;2233744;62;20505;-66
2022/10/02 02:07:34;0.00;0.00;0.62;0.00;0.00;0.62;4.03;2.00;;;25.10;28.40;;;;;;2233533;62;20384;-66
2022/10/02 02:10:25;0.00;0.00;0.62;0.00;0.00;0.62;5.57;1.83;;;25.10;28.50;;;;;;2233642;62;20428;-66
2022/10/02 02:13:18;0.00;0.00;0.62;0.00;0.00;0.62;5.33;2.47;;;25.10;28.60;;;;;;2234128;62;20364;-66
2022/10/02 02:16:11;0.00;0.00;0.62;0.00;0.00;0.62;4.47;1.60;;;25.00;28.60;;;;;;2233340;62;20404;-65
2022/10/02 02:19:04;0.00;0.00;0.62;0.00;0.00;0.62;3.73;2.10;;;25.00;28.60;;;;;;2233720;62;20401;-67
2022/10/02 02:21:54;0.00;0.00;0.62;0.00;0.00;0.62;9.50;2.20;;;25.00;28.70;;;;;;2233607;62;20881;-67
2022/10/02 02:24:46;0.00;0.00;0.62;0.00;0.00;0.62;4.17;1.90;;;25.00;28.80;;;;;;2233458;62;20389;-67
2022/10/02 02:27:36;0.00;0.00;0.62;0.00;0.00;0.62;3.50;2.00;;;24.90;28.70;;;;;;2233749;62;20406;-66
2022/10/02 02:30:22;0.00;0.00;0.62;0.00;0.00;0.62;3.87;1.83;;;24.90;28.70;;;;;;2233329;62;20628;-66
2022/10/02 02:33:16;0.00;0.00;0.62;0.00;0.00;0.62;3.10;2.30;;;24.90;28.80;;;;;;2233511;62;20364;-66
2022/10/02 02:36:08;0.00;0.00;0.62;0.00;0.00;0.62;3.50;1.80;;;24.90;28.80;;;;;;2233569;62;20389;-66
2022/10/02 02:38:59;0.00;0.00;0.62;0.00;0.00;0.62;6.57;2.70;;;24.80;28.80;;;;;;2235670;62;20703;-66
2022/10/02 02:41:48;0.00;0.00;0.62;0.00;0.00;0.62;7.33;2.10;;;24.80;28.90;;;;;;2233635;62;20392;-66
2022/10/02 02:44:40;0.00;0.00;0.62;0.00;0.00;0.62;4.97;1.80;;;24.80;28.90;;;;;;2231775;62;20405;-66
2022/10/02 02:47:31;0.00;0.00;0.62;0.00;0.00;0.62;4.60;2.27;;;24.80;29.00;;;;;;2229688;62;20410;-67
2022/10/02 02:50:22;0.00;0.00;0.62;0.00;0.00;0.62;4.17;1.97;;;24.70;28.90;;;;;;2230021;62;20513;-66
2022/10/02 02:53:13;0.00;0.00;0.62;0.00;0.00;0.62;3.73;2.43;;;24.70;28.90;;;;;;2229458;62;20373;-66
2022/10/02 02:56:00;0.00;0.00;0.62;0.00;0.00;0.62;4.87;2.07;;;24.70;28.90;;;;;;2229875;62;20811;-67
2022/10/02 02:58:52;0.00;0.00;0.62;0.00;0.00;0.62;5.60;2.10;;;24.70;29.50;;;;;;2229527;62;20399;-67
2022/10/02 03:01:37;0.00;0.00;0.62;0.00;0.00;0.62;3.57;1.87;;;24.70;29.00;;;;;;2231752;62;20392;-66
2022/10/02 03:04:22;0.00;0.00;0.62;0.00;0.00;0.62;5.07;2.27;;;24.70;28.90;;;;;;2229633;62;20376;-65
2022/10/02 03:07:13;0.00;0.00;0.62;0.00;0.00;0.62;5.30;2.00;;;24.70;29.00;;;;;;2229198;62;20377;-67
2022/10/02 03:10:09;0.00;0.00;0.62;0.00;0.00;0.62;4.13;1.93;;;24.70;29.00;;;;;;2229654;62;20377;-66
2022/10/02 03:13:05;0.00;0.00;0.62;0.00;0.00;0.62;4.20;2.33;;;24.60;29.00;;;;;;2229439;62;20366;-66
2022/10/02 03:16:10;0.00;0.00;0.62;0.00;0.00;0.62;5.20;2.40;;;24.60;29.00;;;;;;2229443;62;20427;-65
2022/10/02 03:19:15;0.00;0.00;0.62;0.00;0.00;0.62;4.00;1.90;;;24.60;29.00;;;;;;2229615;62;20450;-67
2022/10/02 03:22:09;0.00;0.00;0.62;0.00;0.00;0.62;4.03;1.53;;;24.60;29.00;;;;;;2228868;62;20874;-67
2022/10/02 03:25:02;0.00;0.00;0.62;0.00;0.00;0.62;4.73;1.67;;;24.60;29.00;;;;;;2229561;62;20361;-67
2022/10/02 03:27:58;0.00;0.00;0.62;0.00;0.00;0.62;4.20;1.90;;;24.60;29.00;;;;;;2229396;62;20373;-67
2022/10/02 03:30:45;0.00;0.00;0.62;0.00;0.00;0.62;5.33;2.37;;;24.60;29.00;;;;;;2229422;62;20377;-66
2022/10/02 03:33:32;0.00;0.00;0.62;0.00;0.00;0.62;5.03;2.20;;;24.60;29.10;;;;;;2229510;62;20397;-65
2022/10/02 03:36:19;0.00;0.00;0.62;0.00;0.00;0.62;6.90;2.87;;;24.60;29.10;;;;;;2229551;62;20409;-65
2022/10/02 03:39:05;0.00;0.00;0.62;0.00;0.00;0.62;5.37;2.10;;;24.60;29.10;;;;;;2229663;62;20368;-65
2022/10/02 03:41:52;0.00;0.00;0.62;0.00;0.00;0.62;4.70;2.43;;;24.60;29.10;;;;;;2229874;62;20399;-66
2022/10/02 03:44:37;0.00;0.00;0.62;0.00;0.00;0.62;5.63;2.80;;;24.60;29.20;;;;;;2231185;62;20418;-66
2022/10/02 03:47:21;0.00;0.00;0.62;0.00;0.00;0.62;6.57;2.80;;;24.60;29.20;;;;;;2232928;62;20493;-64
2022/10/02 03:50:10;0.00;0.00;0.62;0.00;0.00;0.62;9.83;2.83;;;24.60;29.20;;;;;;2233499;62;20449;-68
2022/10/02 03:52:55;0.00;0.00;0.62;0.00;0.00;0.62;5.93;2.97;;;24.50;29.30;;;;;;2232817;62;20360;-66
2022/10/02 03:55:45;0.00;0.00;0.62;0.00;0.00;0.62;6.73;2.63;;;24.50;29.30;;;;;;2233369;62;20483;-67
2022/10/02 03:58:31;0.00;0.00;0.62;0.00;0.00;0.62;6.70;2.90;;;24.50;29.30;;;;;;2233287;62;20724;-66
2022/10/02 04:01:23;0.00;0.00;0.62;0.00;0.00;0.62;5.40;2.90;;;24.50;29.30;;;;;;2232962;62;20403;-66
2022/10/02 04:04:16;0.00;0.00;0.62;0.00;0.00;0.62;4.03;2.30;;;24.50;29.40;;;;;;2233720;62;20413;-65
2022/10/02 04:07:05;0.00;0.00;0.62;0.00;0.00;0.62;4.10;2.30;;;24.50;29.40;;;;;;2232998;62;20372;-66
2022/10/02 04:09:58;0.00;0.00;0.62;0.00;0.00;0.62;5.47;2.87;;;24.50;29.30;;;;;;2233283;62;20680;-65
2022/10/02 04:12:48;0.00;0.00;0.62;0.00;0.00;0.62;7.17;3.47;;;24.50;29.40;;;;;;2233401;62;20380;-67
2022/10/02 04:15:48;0.00;0.00;0.62;0.00;0.00;0.62;4.73;2.57;;;24.50;29.40;;;;;;2232935;62;20761;-66
2022/10/02 04:18:38;0.00;0.00;0.62;0.00;0.00;0.62;4.37;3.00;;;24.50;29.40;;;;;;2234161;62;20739;-65
2022/10/02 04:21:33;0.00;0.00;0.62;0.00;0.00;0.62;4.27;2.60;;;24.50;29.40;;;;;;2234068;62;20429;-66
2022/10/02 04:24:29;0.00;0.00;0.62;0.00;0.00;0.62;4.23;2.10;;;24.40;29.30;;;;;;2234099;62;20405;-65
2022/10/02 04:27:20;0.00;0.00;0.62;0.00;0.00;0.62;5.43;2.73;;;24.50;29.40;;;;;;2233983;62;20360;-66
2022/10/02 04:30:09;0.00;0.00;0.62;0.00;0.00;0.62;4.43;2.50;;;24.40;29.30;;;;;;2233671;62;20780;-65
2022/10/02 04:33:05;0.00;0.00;0.62;0.00;0.00;0.62;4.17;3.00;;;24.50;29.50;;;;;;2234237;62;20364;-66
2022/10/02 04:36:01;0.00;0.00;0.62;0.00;0.00;0.62;5.70;2.90;;;24.40;29.50;;;;;;2233653;62;20440;-64
2022/10/02 04:39:05;0.00;0.00;0.62;0.00;0.00;0.62;6.57;2.83;;;24.40;30.10;;;;;;2233865;62;20633;-66
2022/10/02 04:42:19;0.00;0.00;0.62;0.00;0.00;0.62;4.17;2.60;;;24.30;29.60;;;;;;2233575;62;20420;-67
2022/10/02 04:45:31;0.00;0.00;0.62;0.00;0.00;0.62;4.87;2.80;;;24.30;29.60;;;;;;2231040;62;20382;-67
2022/10/02 04:48:47;0.00;0.00;0.62;0.00;0.00;0.62;5.47;3.80;;;24.30;29.60;;;;;;2230162;62;20365;-66
2022/10/02 04:51:53;0.00;0.00;0.62;0.00;0.00;0.62;3.50;2.70;;;24.30;29.60;;;;;;2229574;62;20476;-66
2022/10/02 04:55:01;0.00;0.00;0.62;0.00;0.00;0.62;4.03;2.10;;;24.30;29.60;;;;;;2230236;62;20781;-66
2022/10/02 04:58:17;0.00;0.00;0.62;0.00;0.00;0.62;5.77;3.10;;;24.30;29.60;;;;;;2229657;62;20361;-66
2022/10/02 05:01:15;0.00;0.00;0.62;0.00;0.00;0.62;8.20;3.20;;;24.30;29.60;;;;;;2229922;62;20390;-65
2022/10/02 05:04:30;0.00;0.00;0.62;0.00;0.00;0.62;6.37;3.70;;;24.30;29.60;;;;;;2229849;62;20364;-66
2022/10/02 05:07:36;0.00;0.00;0.62;0.00;0.00;0.62;4.37;3.10;;;24.30;29.60;;;;;;2229826;62;20580;-66
2022/10/02 05:10:41;0.00;0.00;0.62;0.00;0.00;0.62;6.80;3.40;;;24.30;29.60;;;;;;2230107;62;20654;-66
2022/10/02 05:13:58;0.00;0.00;0.62;0.00;0.00;0.62;8.40;3.87;;;24.30;29.70;;;;;;2229705;62;20572;-66
2022/10/02 05:17:10;0.00;0.00;0.62;0.00;0.00;0.62;4.20;2.70;;;24.20;29.70;;;;;;2229968;62;20730;-66
2022/10/02 05:20:27;0.00;0.00;0.62;0.00;0.00;0.62;4.63;2.77;;;24.20;29.80;;;;;;2229686;62;20637;-66
2022/10/02 05:23:27;0.00;0.00;0.62;0.00;0.00;0.62;5.77;3.50;;;24.20;29.80;;;;;;2229757;62;20369;-66
2022/10/02 05:26:44;0.00;0.00;0.62;0.00;0.00;0.62;6.03;2.93;;;24.20;29.90;;;;;;2229701;62;20372;-65
2022/10/02 05:30:08;0.00;0.00;0.62;0.00;0.00;0.62;4.10;2.90;;;24.20;29.90;;;;;;2229600;62;20411;-66
2022/10/02 05:33:30;0.00;0.00;0.62;0.00;0.00;0.62;4.13;2.67;;;24.20;29.90;;;;;;2230244;62;20413;-66
2022/10/02 05:36:34;0.00;0.00;0.62;0.00;0.00;0.62;4.37;2.77;;;24.20;29.90;;;;;;2229848;62;20610;-66
2022/10/02 05:39:25;0.00;0.00;0.62;0.00;0.00;0.62;5.90;2.70;;;24.20;29.80;;;;;;2229933;62;20583;-66
2022/10/02 05:42:19;0.00;0.00;0.62;0.00;0.00;0.62;6.20;3.47;;;24.20;29.80;;;;;;2229833;62;20425;-66
2022/10/02 05:45:20;0.00;0.00;0.62;0.00;0.00;0.62;5.60;2.90;;;24.20;29.80;;;;;;2232468;62;20454;-66
2022/10/02 05:48:18;0.00;0.00;0.62;0.00;0.00;0.62;5.67;2.87;;;24.20;29.80;;;;;;2233948;62;20368;-64
2022/10/02 05:51:09;0.00;0.00;0.62;0.00;0.00;0.62;4.57;2.10;;;24.20;30.40;;;;;;2233549;62;20702;-66
2022/10/02 05:54:01;0.00;0.00;0.62;0.00;0.00;0.62;4.43;2.97;;;24.30;29.90;;;;;;2233751;62;20385;-66
2022/10/02 05:56:57;0.00;0.00;0.62;0.00;0.00;0.62;4.47;2.83;;;24.20;29.80;;;;;;2233777;62;20441;-66
2022/10/02 05:59:51;0.00;0.00;0.62;0.00;0.00;0.62;6.33;2.90;;;24.30;30.00;;;;;;2233666;62;20409;-66
2022/10/02 06:02:46;0.00;0.00;0.62;0.00;0.00;0.62;5.80;3.10;;;24.30;30.00;;;;;;2234157;62;20613;-66
2022/10/02 06:05:43;0.00;0.00;0.62;0.00;0.00;0.62;5.17;3.70;;;24.20;29.90;;;;;;2233516;62;20380;-66
2022/10/02 06:08:35;0.00;0.00;0.62;0.00;0.00;0.62;5.63;3.00;;;24.20;29.90;;;;;;2233663;62;20368;-66
2022/10/02 06:11:27;0.00;0.00;0.62;0.00;0.00;0.62;5.20;2.37;;;24.20;29.90;;;;;;2233719;62;20437;-66
2022/10/02 06:14:20;0.00;0.00;0.62;0.00;0.00;0.62;4.90;3.00;;;24.20;30.00;;;;;;2233585;62;20416;-66
2022/10/02 06:17:11;0.00;0.00;0.62;0.00;0.00;0.62;5.00;2.87;;;24.20;30.00;;;;;;2233399;62;20360;-66
2022/10/02 06:20:04;0.00;0.00;0.62;0.00;0.00;0.62;5.80;4.20;;;24.20;30.00;;;;;;2233543;62;20406;-66
2022/10/02 06:23:06;0.00;0.00;0.62;0.00;0.00;0.62;5.20;3.03;;;24.20;30.00;;;;;;2233698;62;20383;-65
2022/10/02 06:25:55;0.00;0.00;0.62;0.00;0.00;0.62;4.40;3.23;;;24.20;30.00;;;;;;2233768;62;20752;-67
2022/10/02 06:28:50;0.00;0.00;0.62;0.00;0.00;0.62;5.53;2.87;;;24.30;30.10;;;;;;2233248;62;20361;-65
2022/10/02 06:31:42;0.00;0.00;0.62;0.00;0.00;0.62;5.50;3.13;;;24.20;30.00;;;;;;2233728;62;20716;-66
2022/10/02 06:34:27;0.00;0.00;0.62;0.00;0.00;0.62;4.23;3.20;;;24.30;30.00;;;;;;2233528;62;20741;-68
2022/10/02 06:37:48;0.00;0.00;0.62;0.00;0.00;0.62;6.03;3.27;;;24.20;30.00;;;;;;2233200;62;20368;-67
2022/10/02 06:40:46;0.00;0.00;0.62;0.00;0.00;0.62;6.20;3.63;;;24.30;30.20;;;;;;2233372;62;20791;-69
2022/10/02 06:43:57;0.00;0.00;0.62;0.00;0.00;0.62;7.10;3.70;;;24.20;30.20;;;;;;2233309;62;20382;-66
2022/10/02 06:46:59;0.00;0.00;0.62;0.00;0.00;0.62;9.00;3.70;;;24.20;30.30;;;;;;2229957;62;20413;-66
2022/10/02 06:50:04;0.00;0.00;0.62;0.00;0.00;0.62;5.10;3.40;;;24.20;30.30;;;;;;2228990;62;20789;-68
2022/10/02 06:52:57;0.00;0.00;0.62;0.00;0.00;0.62;7.10;4.13;;;24.20;30.30;;;;;;2229347;62;20356;-68
2022/10/02 06:55:50;0.00;0.00;0.62;0.00;0.00;0.62;5.13;3.10;;;24.20;30.40;;;;;;2229632;62;20372;-61
2022/10/02 06:58:54;0.00;0.00;0.62;0.00;0.00;0.62;6.73;3.27;;;24.10;30.50;;;;;;2229227;62;20362;-64
2022/10/02 07:01:49;0.00;0.00;0.62;0.00;0.00;0.62;4.87;2.70;;;24.10;30.70;;;;;;2229727;62;20502;-71
2022/10/02 07:05:02;0.00;0.00;0.62;0.00;0.00;0.62;9.13;3.93;;;24.10;30.80;;;;;;2229303;62;20386;-67
2022/10/02 07:07:56;0.00;0.00;0.62;0.00;0.00;0.62;3.30;2.43;;;24.10;30.90;;;;;;2229817;62;20441;-69
2022/10/02 07:10:50;0.00;0.00;0.62;0.00;0.00;0.62;4.33;2.93;;;24.00;31.00;;;;;;2229501;62;20575;-69
2022/10/02 07:13:57;0.00;0.00;0.62;0.00;0.00;0.62;5.37;3.10;;;24.00;31.20;;;;;;2229402;62;20381;-64
2022/10/02 07:17:09;0.00;0.00;0.62;0.00;0.00;0.62;5.70;2.87;;;24.00;31.30;;;;;;2229722;62;20364;-67
2022/10/02 07:20:34;0.00;0.00;0.62;0.00;0.00;0.62;9.30;3.00;;;24.00;31.40;;;;;;2229394;62;20423;-69
2022/10/02 07:23:56;0.00;0.00;0.62;0.00;0.00;0.62;10.20;2.83;;;24.00;31.60;;;;;;2226780;62;20372;-69
2022/10/02 07:26:54;0.00;0.00;0.62;0.00;0.00;0.62;3.60;2.33;;;23.90;31.60;;;;;;2229225;62;20409;-70
2022/10/02 07:29:51;0.00;0.00;0.62;0.00;0.00;0.62;5.73;3.57;;;23.90;31.70;;;;;;2232072;62;20365;-71
2022/10/02 07:32:49;0.00;0.00;0.62;0.00;0.00;0.62;5.50;3.23;;;23.90;31.80;;;;;;2229422;62;20361;-64
2022/10/02 07:35:47;0.00;0.00;0.62;0.00;0.00;0.62;10.10;3.77;;;23.80;31.70;;;;;;2229348;62;20749;-65
2022/10/02 07:38:51;0.00;0.00;0.62;0.00;0.00;0.62;5.70;2.93;;;23.80;32.00;;;;;;2229690;62;20733;-67
2022/10/02 07:42:30;0.00;0.00;0.62;0.00;0.00;0.62;8.63;3.57;;;23.80;32.10;;;;;;2229289;62;20424;-67
2022/10/02 07:45:28;0.00;0.00;0.62;0.00;0.00;0.62;6.40;3.13;;;23.80;32.20;;;;;;2232645;62;20692;-66
2022/10/02 07:48:40;0.00;0.00;0.62;0.00;0.00;0.62;7.20;2.83;;;23.80;32.40;;;;;;2233076;62;20364;-62
2022/10/02 07:51:48;0.00;0.00;0.62;0.00;0.00;0.62;5.80;3.00;;;23.80;32.30;;;;;;2233402;62;20379;-68
2022/10/02 07:54:53;0.00;0.00;0.62;0.00;0.00;0.62;5.40;2.50;;;23.80;32.20;;;;;;2233358;62;20363;-62
2022/10/02 07:57:48;0.00;0.00;0.62;0.00;0.00;0.62;5.37;2.70;;;23.80;32.10;;;;;;2233174;62;20486;-62
2022/10/02 08:00:40;0.00;0.00;0.62;0.00;0.00;0.62;4.97;2.97;;;23.90;32.10;;;;;;2233367;62;20747;-61
2022/10/02 08:03:30;0.00;0.00;0.62;0.00;0.00;0.62;4.97;2.20;;;23.90;32.00;;;;;;2233042;62;20381;-69
2022/10/02 08:06:17;0.00;0.00;0.62;0.00;0.00;0.62;4.70;2.50;;;23.90;31.80;;;;;;2233005;62;20359;-67
2022/10/02 08:09:07;0.00;0.00;0.62;0.00;0.00;0.62;4.17;2.37;;;24.00;31.80;;;;;;2233285;62;20372;-66
2022/10/02 08:11:56;0.00;0.00;0.62;0.00;0.00;0.62;8.60;2.50;;;24.00;31.80;;;;;;2232925;62;20539;-67
2022/10/02 08:14:45;0.00;0.00;0.62;0.00;0.00;0.62;2.67;1.80;;;24.10;31.80;;;;;;2233245;62;20446;-66
2022/10/02 08:20:34;0.00;0.00;0.62;0.00;0.00;0.62;2.83;2.13;;;24.10;31.70;;;;;;2251481;57;20954;-65
2022/10/02 08:23:25;0.00;0.00;0.62;0.00;0.00;0.62;3.30;2.00;;;24.20;31.60;;;;;;2237586;62;20371;-67
2022/10/02 08:26:18;0.00;0.00;0.62;0.00;0.00;0.62;2.70;1.77;;;24.20;31.50;;;;;;2238697;48;20415;-66
2022/10/02 08:29:08;0.00;0.00;0.62;0.00;0.00;0.62;3.13;2.00;;;24.30;31.50;;;;;;2237076;62;20467;-69
2022/10/02 08:31:55;0.00;0.00;0.62;0.00;0.00;0.62;5.07;1.97;;;24.30;31.40;;;;;;2237695;62;20775;-71
2022/10/02 08:34:42;0.00;0.00;0.62;0.00;0.00;0.62;2.73;2.00;;;24.40;31.40;;;;;;2236476;62;20367;-69
2022/10/02 08:37:38;0.00;0.00;0.62;0.00;0.00;0.62;4.40;2.60;;;24.40;31.30;;;;;;2237509;62;20407;-66
2022/10/02 08:41:17;0.00;0.00;0.62;0.00;0.00;0.62;3.40;2.00;;;24.50;31.30;;;;;;2237153;62;20440;-67
2022/10/02 08:44:57;0.00;0.00;0.62;0.00;0.00;0.62;1.80;1.40;;;24.50;31.30;;;;;;2237244;62;20374;-67
2022/10/02 08:48:41;0.00;0.00;0.62;0.00;0.00;0.62;2.30;1.47;;;24.60;31.30;;;;;;2237766;62;20595;-64
2022/10/02 08:52:24;0.00;0.00;0.62;0.00;0.00;0.62;3.13;2.20;;;24.60;31.20;;;;;;2237314;62;20420;-63
2022/10/02 08:55:46;0.00;0.00;0.62;0.00;0.00;0.62;3.80;2.20;;;24.70;31.70;;;;;;2237611;62;20630;-63
2022/10/02 08:59:34;0.00;0.00;0.62;0.00;0.00;0.62;4.80;3.03;;;24.70;31.00;;;;;;2237231;62;20723;-62
2022/10/02 09:03:24;0.00;0.00;0.62;0.00;0.00;0.62;5.27;3.97;;;24.80;31.00;;;;;;2236663;62;20395;-62
2022/10/02 09:06:55;0.00;0.00;0.62;0.00;0.00;0.62;6.03;3.37;;;24.90;31.00;;;;;;2235260;62;20366;-63
2022/10/02 09:10:25;0.00;0.00;0.62;0.00;0.00;0.62;5.27;3.80;;;24.80;30.80;;;;;;2237623;62;20394;-62
2022/10/02 09:13:49;0.00;0.00;0.62;0.00;0.00;0.62;5.30;4.30;;;24.90;30.80;;;;;;2237947;62;20616;-62
2022/10/02 09:16:57;0.00;0.00;0.62;0.00;0.00;0.62;5.83;3.87;;;25.00;30.80;;;;;;2237672;62;20657;-62
2022/10/02 09:20:01;0.00;0.00;0.62;0.00;0.00;0.62;4.87;4.00;;;25.00;30.80;;;;;;2236636;62;20470;-63
2022/10/02 09:23:54;0.00;0.00;0.62;0.00;0.00;0.62;9.73;4.77;;;25.00;30.80;;;;;;2238221;62;20392;-63
2022/10/02 09:27:20;0.00;0.00;0.62;0.00;0.00;0.62;5.50;3.90;;;25.10;30.70;;;;;;2236126;62;20746;-62
2022/10/02 09:31:02;0.00;0.00;0.62;0.00;0.00;0.62;5.73;4.63;;;25.10;30.70;;;;;;2237586;62;20411;-69
2022/10/02 09:34:24;0.00;0.00;0.62;0.00;0.00;0.62;6.30;3.83;;;25.20;30.70;;;;;;2237113;62;20372;-63
2022/10/02 09:37:44;0.00;0.00;0.62;0.00;0.00;0.62;6.60;5.77;;;25.20;30.80;;;;;;2238230;62;20370;-65
2022/10/02 09:41:31;0.00;0.00;0.62;0.00;0.00;0.62;7.63;4.80;;;25.20;30.70;;;;;;2234863;62;20850;-64
2022/10/02 09:44:55;0.00;0.00;0.62;0.00;0.00;0.62;7.10;4.70;;;25.20;30.60;;;;;;2238069;62;20375;-64
2022/10/02 09:48:34;0.00;0.00;0.62;0.00;0.00;0.62;8.60;4.87;;;25.30;30.60;;;;;;2237403;62;20444;-63
2022/10/02 09:52:01;0.00;0.00;0.62;0.00;0.00;0.62;6.63;3.83;;;25.40;30.60;;;;;;2240015;62;20634;-66
2022/10/02 09:55:35;0.00;0.00;0.62;0.00;0.00;0.62;4.77;3.90;;;25.40;30.50;;;;;;2240774;62;20360;-65
2022/10/02 09:59:18;0.00;0.00;0.62;0.00;0.00;0.62;5.63;4.63;;;25.40;30.40;;;;;;2237647;62;20436;-65
2022/10/02 10:02:36;0.00;0.00;0.62;0.00;0.00;0.62;6.20;3.83;;;25.50;30.30;;;;;;2238242;62;20435;-64
2022/10/02 10:06:11;0.00;0.00;0.62;0.00;0.00;0.62;5.83;3.70;;;25.50;30.30;;;;;;2237626;62;20367;-63
2022/10/02 10:09:47;0.00;0.00;0.62;0.00;0.00;0.62;3.93;3.47;;;25.50;30.30;;;;;;2234647;62;20411;-65
2022/10/02 10:13:21;0.00;0.00;0.62;0.00;0.00;0.62;5.40;3.97;;;25.60;31.10;;;;;;2237697;62;20444;-65
2022/10/02 10:17:07;0.00;0.00;0.62;0.00;0.00;0.62;5.13;3.80;;;25.70;30.50;;;;;;2238179;62;20352;-64
2022/10/02 10:20:16;0.00;0.00;0.62;0.00;0.00;0.62;4.97;3.80;;;25.70;30.50;;;;;;2237601;62;20624;-65
2022/10/02 10:23:38;0.00;0.00;0.62;0.00;0.00;0.62;5.67;3.80;;;25.70;30.50;;;;;;2238158;62;20422;-64
2022/10/02 10:27:12;0.00;0.00;0.62;0.00;0.00;0.62;5.03;3.60;;;25.80;31.20;;;;;;2236633;62;20371;-65
2022/10/02 10:30:32;0.00;0.00;0.62;0.00;0.00;0.62;5.90;3.60;;;25.80;30.50;;;;;;2238086;62;20452;-65
2022/10/02 10:34:28;0.00;0.00;0.62;0.00;0.00;0.62;4.47;3.17;;;25.80;30.40;;;;;;2236917;62;20395;-64
2022/10/02 10:41:04;0.00;0.00;0.62;0.00;0.00;0.62;4.90;3.87;;;25.90;30.20;;;;;;2236882;62;20388;-65
2022/10/02 10:44:26;0.00;0.00;0.62;0.00;0.00;0.62;4.17;3.53;;;26.00;30.10;;;;;;2238029;62;20775;-64
2022/10/02 10:47:34;0.00;0.00;0.62;0.00;0.00;0.62;4.00;3.23;;;26.00;30.00;;;;;;2236952;62;20367;-64
2022/10/02 10:50:34;0.00;0.00;0.62;0.00;0.00;0.62;2.80;2.50;;;26.00;30.00;;;;;;2237705;62;20383;-65
2022/10/02 10:53:47;0.00;0.00;0.62;0.00;0.00;0.62;3.80;2.87;;;26.00;30.00;;;;;;2237836;62;20363;-65
2022/10/02 10:56:41;0.00;0.00;0.62;0.00;0.00;0.62;4.33;3.43;;;26.10;30.00;;;;;;2236888;62;20400;-65
2022/10/02 10:59:59;0.00;0.00;0.62;0.00;0.00;0.62;3.50;2.77;;;26.10;29.90;;;;;;2237805;62;20387;-65
2022/10/02 11:03:44;0.00;0.00;0.62;0.00;0.00;0.62;4.33;2.73;;;26.10;29.90;;;;;;2236960;62;20383;-64
2022/10/02 11:07:06;0.00;0.00;0.62;0.00;0.00;0.62;4.97;3.03;;;26.20;30.00;;;;;;2238080;62;20418;-65
2022/10/02 11:10:14;0.00;0.00;0.62;0.00;0.00;0.62;6.50;2.77;;;26.20;30.00;;;;;;2236349;62;20451;-64
2022/10/02 11:13:24;0.00;0.00;0.62;0.00;0.00;0.62;4.10;3.20;;;26.20;30.00;;;;;;2238019;62;20359;-65
2022/10/02 11:16:36;0.00;0.00;0.62;0.00;0.00;0.62;3.97;3.00;;;26.20;30.00;;;;;;2237786;62;20395;-65
2022/10/02 11:19:47;0.00;0.00;0.62;0.00;0.00;0.62;4.17;2.70;;;26.30;30.00;;;;;;2237506;62;20407;-64
2022/10/02 11:23:01;0.00;0.00;0.62;0.00;0.00;0.62;4.10;3.10;;;26.30;29.90;;;;;;2237897;62;20378;-65
2022/10/02 11:26:13;0.00;0.00;0.62;0.00;0.00;0.62;3.63;2.60;;;26.30;29.80;;;;;;2236574;62;20739;-64
2022/10/02 11:29:33;0.00;0.00;0.62;0.00;0.00;0.62;4.40;2.77;;;26.40;29.80;;;;;;2237783;62;20379;-64
2022/10/02 11:32:56;0.00;0.00;0.62;0.00;0.00;0.62;3.73;3.00;;;26.40;29.70;;;;;;2239000;62;20480;-65
2022/10/02 11:36:10;0.00;0.00;0.62;0.00;0.00;0.62;4.20;2.60;;;26.50;29.70;;;;;;2237897;62;20363;-64
2022/10/02 11:39:57;0.00;0.00;0.62;0.00;0.00;0.62;3.87;2.83;;;26.50;29.60;;;;;;2236634;62;20722;-63
2022/10/02 11:43:10;0.00;0.00;0.62;0.00;0.00;0.62;4.27;2.77;;;26.50;29.50;;;;;;2235607;62;20410;-63
2022/10/02 11:46:20;0.00;0.00;0.62;0.00;0.00;0.62;3.13;2.37;;;26.50;29.50;;;;;;2237523;62;20591;-65
2022/10/02 11:49:44;0.00;0.00;0.62;0.00;0.00;0.62;2.90;2.10;;;26.60;29.50;;;;;;2237665;62;20383;-64
2022/10/02 11:53:04;0.00;0.00;0.62;0.00;0.00;0.62;2.73;2.03;;;26.60;29.50;;;;;;2237688;62;20399;-63
2022/10/02 11:56:11;0.00;0.00;0.62;0.00;0.00;0.62;3.57;2.27;;;26.60;29.40;;;;;;2237064;62;20363;-63
2022/10/02 11:59:18;0.00;0.00;0.62;0.00;0.00;0.62;3.27;2.43;;;26.60;29.40;;;;;;2237674;62;20387;-64
2022/10/02 12:02:14;0.00;0.00;0.62;0.00;0.00;0.62;2.93;2.23;;;26.60;29.40;;;;;;2236619;62;20414;-64
2022/10/02 12:05:21;0.00;0.00;0.62;0.00;0.00;0.62;2.30;1.93;;;26.60;29.30;;;;;;2237840;62;20735;-63
2022/10/02 12:08:16;0.00;0.00;0.62;0.00;0.00;0.62;2.77;2.17;;;26.60;29.30;;;;;;2237440;62;20379;-64
2022/10/02 12:11:11;0.00;0.00;0.62;0.00;0.00;0.62;3.10;2.30;;;26.60;29.30;;;;;;2237636;62;20355;-64